sensor_id;sensor_type;location;lat;lon;timestamp;P1;durP1;ratioP1;P2;durP2;ratioP2
44440;SDS011;30146;52.268;20.944;2023-05-07T00:01:27;5.20;;;4.20;;
44440;SDS011;30146;52.268;20.944;2023-05-07T00:03:59;6.80;;;4.60;;
44440;SDS011;30146;52.268;20.944;2023-05-07T00:06:31;6.10;;;4.40;;
44440;SDS011;30146;52.268;20.944;2023-05-07T00:09:03;8.30;;;4.60;;
44440;SDS011;30146;52.268;20.944;2023-05-07T00:11:35;9.30;;;5.40;;
44440;SDS011;30146;52.268;20.944;2023-05-07T00:14:06;7.00;;;4.40;;
44440;SDS011;30146;52.268;20.944;2023-05-07T00:16:37;4.20;;;3.70;;
44440;SDS011;30146;52.268;20.944;2023-05-07T00:19:08;7.40;;;3.90;;
44440;SDS011;30146;52.268;20.944;2023-05-07T00:21:38;4.70;;;4.20;;
44440;SDS011;30146;52.268;20.944;2023-05-07T00:24:09;7.80;;;4.40;;
44440;SDS011;30146;52.268;20.944;2023-05-07T00:26:40;5.70;;;3.90;;
44440;SDS011;30146;52.268;20.944;2023-05-07T00:29:11;7.80;;;3.90;;
44440;SDS011;30146;52.268;20.944;2023-05-07T00:31:42;6.80;;;4.40;;
44440;SDS011;30146;52.268;20.944;2023-05-07T00:34:16;6.30;;;4.00;;
44440;SDS011;30146;52.268;20.944;2023-05-07T00:36:52;7.80;;;4.20;;
44440;SDS011;30146;52.268;20.944;2023-05-07T00:39:23;8.30;;;4.30;;
44440;SDS011;30146;52.268;20.944;2023-05-07T00:41:54;4.30;;;3.90;;
44440;SDS011;30146;52.268;20.944;2023-05-07T00:44:26;6.20;;;4.30;;
44440;SDS011;30146;52.268;20.944;2023-05-07T00:46:58;5.80;;;4.20;;
44440;SDS011;30146;52.268;20.944;2023-05-07T00:49:32;6.20;;;4.30;;
44440;SDS011;30146;52.268;20.944;2023-05-07T00:52:07;6.10;;;4.30;;
44440;SDS011;30146;52.268;20.944;2023-05-07T00:54:38;6.20;;;4.10;;
44440;SDS011;30146;52.268;20.944;2023-05-07T00:57:14;4.60;;;3.70;;
44440;SDS011;30146;52.268;20.944;2023-05-07T00:59:45;4.80;;;3.40;;
44440;SDS011;30146;52.268;20.944;2023-05-07T01:02:16;6.40;;;3.70;;
44440;SDS011;30146;52.268;20.944;2023-05-07T01:04:47;6.00;;;3.80;;
44440;SDS011;30146;52.268;20.944;2023-05-07T01:07:18;7.50;;;3.60;;
44440;SDS011;30146;52.268;20.944;2023-05-07T01:09:49;5.00;;;3.60;;
44440;SDS011;30146;52.268;20.944;2023-05-07T01:12:21;4.80;;;3.80;;
44440;SDS011;30146;52.268;20.944;2023-05-07T01:14:55;5.10;;;4.20;;
44440;SDS011;30146;52.268;20.944;2023-05-07T01:17:28;4.80;;;3.70;;
44440;SDS011;30146;52.268;20.944;2023-05-07T01:20:02;4.20;;;3.80;;
44440;SDS011;30146;52.268;20.944;2023-05-07T01:22:37;11.90;;;4.00;;
44440;SDS011;30146;52.268;20.944;2023-05-07T01:25:09;5.40;;;3.70;;
44440;SDS011;30146;52.268;20.944;2023-05-07T01:27:44;5.40;;;3.40;;
44440;SDS011;30146;52.268;20.944;2023-05-07T01:30:15;6.20;;;4.00;;
44440;SDS011;30146;52.268;20.944;2023-05-07T01:32:57;5.30;;;3.60;;
44440;SDS011;30146;52.268;20.944;2023-05-07T01:35:32;3.70;;;3.30;;
44440;SDS011;30146;52.268;20.944;2023-05-07T01:38:06;9.20;;;4.10;;
44440;SDS011;30146;52.268;20.944;2023-05-07T01:40:38;4.90;;;4.00;;
44440;SDS011;30146;52.268;20.944;2023-05-07T01:43:09;5.30;;;3.90;;
44440;SDS011;30146;52.268;20.944;2023-05-07T01:45:42;6.90;;;4.10;;
44440;SDS011;30146;52.268;20.944;2023-05-07T01:48:13;5.30;;;3.80;;
44440;SDS011;30146;52.268;20.944;2023-05-07T01:50:44;6.00;;;4.60;;
44440;SDS011;30146;52.268;20.944;2023-05-07T01:53:16;5.40;;;3.60;;
44440;SDS011;30146;52.268;20.944;2023-05-07T01:55:48;5.60;;;3.70;;
44440;SDS011;30146;52.268;20.944;2023-05-07T01:58:21;7.90;;;4.00;;
44440;SDS011;30146;52.268;20.944;2023-05-07T02:00:54;5.80;;;4.00;;
44440;SDS011;30146;52.268;20.944;2023-05-07T02:03:26;8.60;;;4.30;;
44440;SDS011;30146;52.268;20.944;2023-05-07T02:06:04;4.20;;;3.80;;
44440;SDS011;30146;52.268;20.944;2023-05-07T02:08:38;6.20;;;4.30;;
44440;SDS011;30146;52.268;20.944;2023-05-07T02:11:10;6.60;;;3.90;;
44440;SDS011;30146;52.268;20.944;2023-05-07T02:13:41;3.90;;;3.50;;
44440;SDS011;30146;52.268;20.944;2023-05-07T02:16:12;4.70;;;3.50;;
44440;SDS011;30146;52.268;20.944;2023-05-07T02:18:43;4.30;;;3.80;;
44440;SDS011;30146;52.268;20.944;2023-05-07T02:21:14;5.40;;;3.60;;
44440;SDS011;30146;52.268;20.944;2023-05-07T02:23:45;4.90;;;3.70;;
44440;SDS011;30146;52.268;20.944;2023-05-07T02:26:16;4.80;;;3.80;;
44440;SDS011;30146;52.268;20.944;2023-05-07T02:28:49;4.30;;;3.50;;
44440;SDS011;30146;52.268;20.944;2023-05-07T02:31:21;3.90;;;3.30;;
44440;SDS011;30146;52.268;20.944;2023-05-07T02:33:52;5.20;;;3.20;;
44440;SDS011;30146;52.268;20.944;2023-05-07T02:36:23;5.70;;;3.60;;
44440;SDS011;30146;52.268;20.944;2023-05-07T02:39:03;5.20;;;3.80;;
44440;SDS011;30146;52.268;20.944;2023-05-07T02:41:34;5.80;;;3.30;;
44440;SDS011;30146;52.268;20.944;2023-05-07T02:44:05;3.90;;;3.30;;
44440;SDS011;30146;52.268;20.944;2023-05-07T02:46:37;7.60;;;4.00;;
44440;SDS011;30146;52.268;20.944;2023-05-07T02:49:09;4.20;;;3.80;;
44440;SDS011;30146;52.268;20.944;2023-05-07T02:51:40;5.10;;;3.70;;
44440;SDS011;30146;52.268;20.944;2023-05-07T02:54:15;5.00;;;3.30;;
44440;SDS011;30146;52.268;20.944;2023-05-07T02:56:46;5.00;;;3.20;;
44440;SDS011;30146;52.268;20.944;2023-05-07T02:59:17;5.90;;;4.20;;
44440;SDS011;30146;52.268;20.944;2023-05-07T03:01:48;3.20;;;2.90;;
44440;SDS011;30146;52.268;20.944;2023-05-07T03:04:18;4.80;;;3.20;;
44440;SDS011;30146;52.268;20.944;2023-05-07T03:06:50;13.90;;;3.60;;
44440;SDS011;30146;52.268;20.944;2023-05-07T03:09:20;4.60;;;3.30;;
44440;SDS011;30146;52.268;20.944;2023-05-07T03:11:51;4.70;;;3.60;;
44440;SDS011;30146;52.268;20.944;2023-05-07T03:14:22;5.30;;;3.70;;
44440;SDS011;30146;52.268;20.944;2023-05-07T03:16:55;3.90;;;3.50;;
44440;SDS011;30146;52.268;20.944;2023-05-07T03:19:26;4.70;;;3.30;;
44440;SDS011;30146;52.268;20.944;2023-05-07T03:21:58;4.60;;;3.50;;
44440;SDS011;30146;52.268;20.944;2023-05-07T03:24:29;3.30;;;3.00;;
44440;SDS011;30146;52.268;20.944;2023-05-07T03:27:00;4.10;;;3.20;;
44440;SDS011;30146;52.268;20.944;2023-05-07T03:29:31;5.50;;;3.40;;
44440;SDS011;30146;52.268;20.944;2023-05-07T03:32:02;5.70;;;3.60;;
44440;SDS011;30146;52.268;20.944;2023-05-07T03:34:33;7.60;;;3.20;;
44440;SDS011;30146;52.268;20.944;2023-05-07T03:37:04;5.40;;;3.50;;
44440;SDS011;30146;52.268;20.944;2023-05-07T03:39:35;3.70;;;3.20;;
44440;SDS011;30146;52.268;20.944;2023-05-07T03:42:06;7.80;;;4.20;;
44440;SDS011;30146;52.268;20.944;2023-05-07T03:44:38;6.00;;;4.00;;
44440;SDS011;30146;52.268;20.944;2023-05-07T03:47:08;7.10;;;4.00;;
44440;SDS011;30146;52.268;20.944;2023-05-07T03:49:41;4.50;;;3.80;;
44440;SDS011;30146;52.268;20.944;2023-05-07T03:52:12;5.30;;;3.80;;
44440;SDS011;30146;52.268;20.944;2023-05-07T03:54:43;3.90;;;3.10;;
44440;SDS011;30146;52.268;20.944;2023-05-07T03:57:14;6.10;;;3.80;;
44440;SDS011;30146;52.268;20.944;2023-05-07T03:59:45;4.50;;;3.10;;
44440;SDS011;30146;52.268;20.944;2023-05-07T04:02:15;4.20;;;3.40;;
44440;SDS011;30146;52.268;20.944;2023-05-07T04:04:46;4.30;;;3.00;;
44440;SDS011;30146;52.268;20.944;2023-05-07T04:07:19;7.30;;;3.40;;
44440;SDS011;30146;52.268;20.944;2023-05-07T04:09:50;4.00;;;3.10;;
44440;SDS011;30146;52.268;20.944;2023-05-07T04:12:20;8.20;;;3.80;;
44440;SDS011;30146;52.268;20.944;2023-05-07T04:14:51;6.20;;;4.70;;
44440;SDS011;30146;52.268;20.944;2023-05-07T04:17:24;3.70;;;3.30;;
44440;SDS011;30146;52.268;20.944;2023-05-07T04:19:54;6.70;;;4.00;;
44440;SDS011;30146;52.268;20.944;2023-05-07T04:22:26;6.50;;;3.50;;
44440;SDS011;30146;52.268;20.944;2023-05-07T04:24:57;4.70;;;3.20;;
44440;SDS011;30146;52.268;20.944;2023-05-07T04:27:28;3.80;;;3.50;;
44440;SDS011;30146;52.268;20.944;2023-05-07T04:30:00;3.10;;;2.80;;
44440;SDS011;30146;52.268;20.944;2023-05-07T04:32:35;4.70;;;3.40;;
44440;SDS011;30146;52.268;20.944;2023-05-07T04:35:07;3.50;;;3.10;;
44440;SDS011;30146;52.268;20.944;2023-05-07T04:37:39;3.00;;;2.80;;
44440;SDS011;30146;52.268;20.944;2023-05-07T04:40:10;4.40;;;2.90;;
44440;SDS011;30146;52.268;20.944;2023-05-07T04:42:42;4.00;;;3.00;;
44440;SDS011;30146;52.268;20.944;2023-05-07T04:45:13;4.00;;;3.20;;
44440;SDS011;30146;52.268;20.944;2023-05-07T04:47:45;5.70;;;4.00;;
44440;SDS011;30146;52.268;20.944;2023-05-07T04:50:16;6.50;;;3.70;;
44440;SDS011;30146;52.268;20.944;2023-05-07T04:52:48;4.10;;;3.30;;
44440;SDS011;30146;52.268;20.944;2023-05-07T04:55:19;4.00;;;3.20;;
44440;SDS011;30146;52.268;20.944;2023-05-07T04:57:51;3.80;;;3.10;;
44440;SDS011;30146;52.268;20.944;2023-05-07T05:00:22;4.40;;;3.10;;
44440;SDS011;30146;52.268;20.944;2023-05-07T05:02:54;5.30;;;3.00;;
44440;SDS011;30146;52.268;20.944;2023-05-07T05:05:25;5.00;;;3.30;;
44440;SDS011;30146;52.268;20.944;2023-05-07T05:07:56;7.30;;;2.70;;
44440;SDS011;30146;52.268;20.944;2023-05-07T05:10:27;11.50;;;2.70;;
44440;SDS011;30146;52.268;20.944;2023-05-07T05:12:58;3.40;;;3.10;;
44440;SDS011;30146;52.268;20.944;2023-05-07T05:15:29;5.80;;;3.70;;
44440;SDS011;30146;52.268;20.944;2023-05-07T05:18:01;7.00;;;3.20;;
44440;SDS011;30146;52.268;20.944;2023-05-07T05:20:32;7.00;;;3.00;;
44440;SDS011;30146;52.268;20.944;2023-05-07T05:23:03;5.40;;;3.20;;
44440;SDS011;30146;52.268;20.944;2023-05-07T05:25:34;3.40;;;2.70;;
44440;SDS011;30146;52.268;20.944;2023-05-07T05:28:05;4.30;;;3.20;;
44440;SDS011;30146;52.268;20.944;2023-05-07T05:30:36;4.40;;;3.70;;
44440;SDS011;30146;52.268;20.944;2023-05-07T05:33:08;6.00;;;3.70;;
44440;SDS011;30146;52.268;20.944;2023-05-07T05:35:39;4.90;;;4.00;;
44440;SDS011;30146;52.268;20.944;2023-05-07T05:38:11;4.80;;;3.10;;
44440;SDS011;30146;52.268;20.944;2023-05-07T05:40:43;5.50;;;2.70;;
44440;SDS011;30146;52.268;20.944;2023-05-07T05:43:14;4.20;;;3.30;;
44440;SDS011;30146;52.268;20.944;2023-05-07T05:45:45;3.00;;;2.70;;
44440;SDS011;30146;52.268;20.944;2023-05-07T05:48:16;6.30;;;3.00;;
44440;SDS011;30146;52.268;20.944;2023-05-07T05:50:47;3.80;;;3.40;;
44440;SDS011;30146;52.268;20.944;2023-05-07T05:53:19;4.10;;;3.30;;
44440;SDS011;30146;52.268;20.944;2023-05-07T05:55:49;4.30;;;3.30;;
44440;SDS011;30146;52.268;20.944;2023-05-07T05:58:20;3.80;;;2.80;;
44440;SDS011;30146;52.268;20.944;2023-05-07T06:03:26;2.90;;;2.50;;
44440;SDS011;30146;52.268;20.944;2023-05-07T06:05:58;5.10;;;3.00;;
44440;SDS011;30146;52.268;20.944;2023-05-07T06:08:30;4.10;;;2.60;;
44440;SDS011;30146;52.268;20.944;2023-05-07T06:11:01;3.50;;;3.20;;
44440;SDS011;30146;52.268;20.944;2023-05-07T06:13:33;5.70;;;2.80;;
44440;SDS011;30146;52.268;20.944;2023-05-07T06:16:05;3.00;;;2.70;;
44440;SDS011;30146;52.268;20.944;2023-05-07T06:18:37;3.50;;;3.10;;
44440;SDS011;30146;52.268;20.944;2023-05-07T06:21:07;4.60;;;2.90;;
44440;SDS011;30146;52.268;20.944;2023-05-07T06:23:38;4.00;;;3.10;;
44440;SDS011;30146;52.268;20.944;2023-05-07T06:26:10;3.90;;;2.70;;
44440;SDS011;30146;52.268;20.944;2023-05-07T06:28:43;5.90;;;2.80;;
44440;SDS011;30146;52.268;20.944;2023-05-07T06:31:15;4.30;;;3.10;;
44440;SDS011;30146;52.268;20.944;2023-05-07T06:33:55;3.10;;;2.80;;
44440;SDS011;30146;52.268;20.944;2023-05-07T06:36:31;3.40;;;2.90;;
44440;SDS011;30146;52.268;20.944;2023-05-07T06:39:10;3.40;;;2.80;;
44440;SDS011;30146;52.268;20.944;2023-05-07T06:41:40;4.20;;;2.80;;
44440;SDS011;30146;52.268;20.944;2023-05-07T06:44:18;3.70;;;2.70;;
44440;SDS011;30146;52.268;20.944;2023-05-07T06:46:59;4.80;;;2.70;;
44440;SDS011;30146;52.268;20.944;2023-05-07T06:49:30;4.00;;;3.00;;
44440;SDS011;30146;52.268;20.944;2023-05-07T06:52:01;4.00;;;2.80;;
44440;SDS011;30146;52.268;20.944;2023-05-07T06:54:32;4.40;;;3.00;;
44440;SDS011;30146;52.268;20.944;2023-05-07T06:57:03;3.10;;;2.80;;
44440;SDS011;30146;52.268;20.944;2023-05-07T06:59:34;4.30;;;2.80;;
44440;SDS011;30146;52.268;20.944;2023-05-07T07:02:05;7.90;;;3.70;;
44440;SDS011;30146;52.268;20.944;2023-05-07T07:04:36;3.60;;;2.60;;
44440;SDS011;30146;52.268;20.944;2023-05-07T07:07:09;5.40;;;3.20;;
44440;SDS011;30146;52.268;20.944;2023-05-07T07:09:41;4.30;;;3.20;;
44440;SDS011;30146;52.268;20.944;2023-05-07T07:12:13;5.00;;;2.80;;
44440;SDS011;30146;52.268;20.944;2023-05-07T07:14:44;5.00;;;3.20;;
44440;SDS011;30146;52.268;20.944;2023-05-07T07:17:15;3.40;;;3.00;;
44440;SDS011;30146;52.268;20.944;2023-05-07T07:19:46;4.70;;;2.80;;
44440;SDS011;30146;52.268;20.944;2023-05-07T07:22:17;3.70;;;3.00;;
44440;SDS011;30146;52.268;20.944;2023-05-07T07:24:48;6.90;;;2.60;;
44440;SDS011;30146;52.268;20.944;2023-05-07T07:27:19;3.50;;;2.80;;
44440;SDS011;30146;52.268;20.944;2023-05-07T07:29:50;8.00;;;2.80;;
44440;SDS011;30146;52.268;20.944;2023-05-07T07:32:21;5.70;;;2.70;;
44440;SDS011;30146;52.268;20.944;2023-05-07T07:34:53;4.80;;;2.90;;
44440;SDS011;30146;52.268;20.944;2023-05-07T07:37:24;3.70;;;2.70;;
44440;SDS011;30146;52.268;20.944;2023-05-07T07:39:55;2.80;;;2.60;;
44440;SDS011;30146;52.268;20.944;2023-05-07T07:42:26;3.70;;;2.90;;
44440;SDS011;30146;52.268;20.944;2023-05-07T07:44:57;7.60;;;3.40;;
44440;SDS011;30146;52.268;20.944;2023-05-07T07:51:50;3.40;;;2.40;;
44440;SDS011;30146;52.268;20.944;2023-05-07T07:54:21;4.90;;;2.80;;
44440;SDS011;30146;52.268;20.944;2023-05-07T07:56:55;6.80;;;2.90;;
44440;SDS011;30146;52.268;20.944;2023-05-07T07:59:32;5.10;;;2.50;;
44440;SDS011;30146;52.268;20.944;2023-05-07T08:04:56;3.20;;;2.60;;
44440;SDS011;30146;52.268;20.944;2023-05-07T08:07:41;3.20;;;2.60;;
44440;SDS011;30146;52.268;20.944;2023-05-07T08:10:14;5.10;;;3.30;;
44440;SDS011;30146;52.268;20.944;2023-05-07T08:12:54;3.30;;;2.50;;
44440;SDS011;30146;52.268;20.944;2023-05-07T08:15:27;3.40;;;2.50;;
44440;SDS011;30146;52.268;20.944;2023-05-07T08:17:58;4.30;;;2.90;;
44440;SDS011;30146;52.268;20.944;2023-05-07T08:20:33;4.80;;;3.20;;
44440;SDS011;30146;52.268;20.944;2023-05-07T08:23:09;3.70;;;2.40;;
44440;SDS011;30146;52.268;20.944;2023-05-07T08:25:41;4.10;;;2.30;;
44440;SDS011;30146;52.268;20.944;2023-05-07T08:31:59;6.30;;;2.50;;
44440;SDS011;30146;52.268;20.944;2023-05-07T08:34:30;4.50;;;2.50;;
44440;SDS011;30146;52.268;20.944;2023-05-07T08:37:02;2.70;;;2.20;;
44440;SDS011;30146;52.268;20.944;2023-05-07T08:39:34;3.00;;;2.50;;
44440;SDS011;30146;52.268;20.944;2023-05-07T08:42:16;3.10;;;2.70;;
44440;SDS011;30146;52.268;20.944;2023-05-07T08:44:55;3.40;;;2.50;;
44440;SDS011;30146;52.268;20.944;2023-05-07T08:50:33;4.40;;;2.80;;
44440;SDS011;30146;52.268;20.944;2023-05-07T08:53:06;5.70;;;3.10;;
44440;SDS011;30146;52.268;20.944;2023-05-07T08:55:39;3.60;;;2.70;;
44440;SDS011;30146;52.268;20.944;2023-05-07T08:58:10;4.10;;;2.20;;
44440;SDS011;30146;52.268;20.944;2023-05-07T09:00:41;2.50;;;2.20;;
44440;SDS011;30146;52.268;20.944;2023-05-07T09:03:19;2.60;;;2.20;;
44440;SDS011;30146;52.268;20.944;2023-05-07T09:05:54;6.20;;;2.50;;
44440;SDS011;30146;52.268;20.944;2023-05-07T09:08:28;2.10;;;1.90;;
44440;SDS011;30146;52.268;20.944;2023-05-07T09:11:02;3.10;;;2.50;;
44440;SDS011;30146;52.268;20.944;2023-05-07T09:13:33;4.40;;;2.80;;
44440;SDS011;30146;52.268;20.944;2023-05-07T09:16:11;3.30;;;2.30;;
44440;SDS011;30146;52.268;20.944;2023-05-07T09:18:52;5.00;;;2.20;;
44440;SDS011;30146;52.268;20.944;2023-05-07T09:21:24;4.20;;;2.40;;
44440;SDS011;30146;52.268;20.944;2023-05-07T09:23:59;3.30;;;2.10;;
44440;SDS011;30146;52.268;20.944;2023-05-07T09:26:40;3.80;;;2.00;;
44440;SDS011;30146;52.268;20.944;2023-05-07T09:29:12;2.80;;;2.20;;
44440;SDS011;30146;52.268;20.944;2023-05-07T09:31:45;3.10;;;2.00;;
44440;SDS011;30146;52.268;20.944;2023-05-07T09:34:21;2.60;;;2.10;;
44440;SDS011;30146;52.268;20.944;2023-05-07T09:36:56;3.10;;;2.20;;
44440;SDS011;30146;52.268;20.944;2023-05-07T09:39:30;3.80;;;2.20;;
44440;SDS011;30146;52.268;20.944;2023-05-07T09:42:09;3.10;;;2.20;;
44440;SDS011;30146;52.268;20.944;2023-05-07T09:44:46;5.10;;;2.20;;
44440;SDS011;30146;52.268;20.944;2023-05-07T09:47:23;3.90;;;2.40;;
44440;SDS011;30146;52.268;20.944;2023-05-07T09:49:58;5.30;;;2.30;;
44440;SDS011;30146;52.268;20.944;2023-05-07T09:52:38;7.70;;;2.40;;
44440;SDS011;30146;52.268;20.944;2023-05-07T09:59:22;6.20;;;2.10;;
44440;SDS011;30146;52.268;20.944;2023-05-07T10:01:58;3.40;;;2.00;;
44440;SDS011;30146;52.268;20.944;2023-05-07T10:04:37;3.00;;;1.90;;
44440;SDS011;30146;52.268;20.944;2023-05-07T10:07:09;3.70;;;2.00;;
44440;SDS011;30146;52.268;20.944;2023-05-07T10:09:41;8.90;;;2.10;;
44440;SDS011;30146;52.268;20.944;2023-05-07T10:12:24;3.50;;;2.10;;
44440;SDS011;30146;52.268;20.944;2023-05-07T10:14:56;4.20;;;2.10;;
44440;SDS011;30146;52.268;20.944;2023-05-07T10:17:27;2.60;;;1.90;;
44440;SDS011;30146;52.268;20.944;2023-05-07T10:19:59;10.20;;;2.20;;
44440;SDS011;30146;52.268;20.944;2023-05-07T10:22:45;4.40;;;1.70;;
44440;SDS011;30146;52.268;20.944;2023-05-07T10:25:23;5.20;;;1.80;;
44440;SDS011;30146;52.268;20.944;2023-05-07T10:28:03;3.00;;;1.80;;
44440;SDS011;30146;52.268;20.944;2023-05-07T10:30:44;3.70;;;2.00;;
44440;SDS011;30146;52.268;20.944;2023-05-07T10:33:26;2.40;;;1.80;;
44440;SDS011;30146;52.268;20.944;2023-05-07T10:36:00;3.10;;;2.00;;
44440;SDS011;30146;52.268;20.944;2023-05-07T10:38:33;4.80;;;2.20;;
44440;SDS011;30146;52.268;20.944;2023-05-07T10:41:04;3.50;;;1.90;;
44440;SDS011;30146;52.268;20.944;2023-05-07T10:43:41;7.40;;;1.80;;
44440;SDS011;30146;52.268;20.944;2023-05-07T10:46:28;2.60;;;1.90;;
44440;SDS011;30146;52.268;20.944;2023-05-07T10:49:14;3.90;;;2.20;;
44440;SDS011;30146;52.268;20.944;2023-05-07T10:55:21;2.80;;;2.10;;
44440;SDS011;30146;52.268;20.944;2023-05-07T11:04:26;2.70;;;2.10;;
44440;SDS011;30146;52.268;20.944;2023-05-07T11:10:15;3.10;;;2.10;;
44440;SDS011;30146;52.268;20.944;2023-05-07T11:13:05;2.80;;;1.40;;
44440;SDS011;30146;52.268;20.944;2023-05-07T11:20:22;4.70;;;1.90;;
44440;SDS011;30146;52.268;20.944;2023-05-07T11:23:56;7.50;;;2.70;;
44440;SDS011;30146;52.268;20.944;2023-05-07T11:29:13;4.80;;;1.80;;
44440;SDS011;30146;52.268;20.944;2023-05-07T11:31:55;3.90;;;1.90;;
44440;SDS011;30146;52.268;20.944;2023-05-07T11:34:34;2.40;;;2.20;;
44440;SDS011;30146;52.268;20.944;2023-05-07T11:37:08;1.90;;;1.60;;
44440;SDS011;30146;52.268;20.944;2023-05-07T11:39:49;2.30;;;1.90;;
44440;SDS011;30146;52.268;20.944;2023-05-07T11:42:32;2.10;;;1.80;;
44440;SDS011;30146;52.268;20.944;2023-05-07T11:45:09;4.60;;;1.90;;
44440;SDS011;30146;52.268;20.944;2023-05-07T11:47:42;4.60;;;2.00;;
44440;SDS011;30146;52.268;20.944;2023-05-07T11:50:13;5.50;;;2.60;;
44440;SDS011;30146;52.268;20.944;2023-05-07T11:52:56;2.00;;;1.80;;
44440;SDS011;30146;52.268;20.944;2023-05-07T11:55:27;3.10;;;1.70;;
44440;SDS011;30146;52.268;20.944;2023-05-07T11:57:58;4.00;;;2.40;;
44440;SDS011;30146;52.268;20.944;2023-05-07T12:00:28;2.70;;;1.90;;
44440;SDS011;30146;52.268;20.944;2023-05-07T12:03:04;2.90;;;1.60;;
44440;SDS011;30146;52.268;20.944;2023-05-07T12:05:37;3.00;;;2.00;;
44440;SDS011;30146;52.268;20.944;2023-05-07T12:08:12;2.20;;;2.00;;
44440;SDS011;30146;52.268;20.944;2023-05-07T12:10:50;3.20;;;1.90;;
44440;SDS011;30146;52.268;20.944;2023-05-07T12:13:22;2.90;;;2.10;;
44440;SDS011;30146;52.268;20.944;2023-05-07T12:23:15;8.80;;;2.00;;
44440;SDS011;30146;52.268;20.944;2023-05-07T12:25:51;1.50;;;1.40;;
44440;SDS011;30146;52.268;20.944;2023-05-07T12:28:22;3.40;;;1.80;;
44440;SDS011;30146;52.268;20.944;2023-05-07T12:33:41;2.60;;;1.70;;
44440;SDS011;30146;52.268;20.944;2023-05-07T12:36:12;2.80;;;1.80;;
44440;SDS011;30146;52.268;20.944;2023-05-07T12:48:27;2.90;;;1.90;;
44440;SDS011;30146;52.268;20.944;2023-05-07T12:51:02;3.00;;;1.80;;
44440;SDS011;30146;52.268;20.944;2023-05-07T12:58:18;4.50;;;2.00;;
44440;SDS011;30146;52.268;20.944;2023-05-07T13:00:52;5.60;;;2.40;;
44440;SDS011;30146;52.268;20.944;2023-05-07T13:03:29;2.00;;;1.60;;
44440;SDS011;30146;52.268;20.944;2023-05-07T13:06:06;3.20;;;2.00;;
44440;SDS011;30146;52.268;20.944;2023-05-07T13:08:44;2.70;;;1.80;;
44440;SDS011;30146;52.268;20.944;2023-05-07T13:11:17;2.90;;;1.90;;
44440;SDS011;30146;52.268;20.944;2023-05-07T13:13:48;2.20;;;1.80;;
44440;SDS011;30146;52.268;20.944;2023-05-07T13:16:21;1.80;;;1.60;;
44440;SDS011;30146;52.268;20.944;2023-05-07T13:18:56;3.60;;;2.10;;
44440;SDS011;30146;52.268;20.944;2023-05-07T13:21:27;2.10;;;1.90;;
44440;SDS011;30146;52.268;20.944;2023-05-07T13:23:59;2.30;;;1.70;;
44440;SDS011;30146;52.268;20.944;2023-05-07T13:26:31;2.70;;;2.10;;
44440;SDS011;30146;52.268;20.944;2023-05-07T13:29:01;4.80;;;1.90;;
44440;SDS011;30146;52.268;20.944;2023-05-07T13:31:32;4.40;;;2.10;;
44440;SDS011;30146;52.268;20.944;2023-05-07T13:34:04;2.40;;;1.90;;
44440;SDS011;30146;52.268;20.944;2023-05-07T13:36:36;3.70;;;1.70;;
44440;SDS011;30146;52.268;20.944;2023-05-07T13:39:07;3.90;;;2.00;;
44440;SDS011;30146;52.268;20.944;2023-05-07T13:41:39;4.10;;;1.70;;
44440;SDS011;30146;52.268;20.944;2023-05-07T13:44:10;2.80;;;1.70;;
44440;SDS011;30146;52.268;20.944;2023-05-07T13:46:41;2.70;;;1.60;;
44440;SDS011;30146;52.268;20.944;2023-05-07T13:49:12;2.50;;;1.70;;
44440;SDS011;30146;52.268;20.944;2023-05-07T13:51:43;6.30;;;1.70;;
44440;SDS011;30146;52.268;20.944;2023-05-07T13:54:16;3.30;;;2.00;;
44440;SDS011;30146;52.268;20.944;2023-05-07T14:01:17;3.00;;;1.70;;
44440;SDS011;30146;52.268;20.944;2023-05-07T14:03:50;4.40;;;1.80;;
44440;SDS011;30146;52.268;20.944;2023-05-07T14:13:26;3.00;;;1.80;;
44440;SDS011;30146;52.268;20.944;2023-05-07T14:16:00;2.20;;;1.70;;
44440;SDS011;30146;52.268;20.944;2023-05-07T14:18:36;3.80;;;2.10;;
44440;SDS011;30146;52.268;20.944;2023-05-07T14:21:07;3.40;;;2.00;;
44440;SDS011;30146;52.268;20.944;2023-05-07T14:23:38;2.20;;;1.70;;
44440;SDS011;30146;52.268;20.944;2023-05-07T14:26:09;4.40;;;1.90;;
44440;SDS011;30146;52.268;20.944;2023-05-07T14:28:40;2.10;;;1.70;;
44440;SDS011;30146;52.268;20.944;2023-05-07T14:31:20;5.50;;;2.30;;
44440;SDS011;30146;52.268;20.944;2023-05-07T14:38:29;3.00;;;1.90;;
44440;SDS011;30146;52.268;20.944;2023-05-07T14:41:01;5.20;;;1.80;;
44440;SDS011;30146;52.268;20.944;2023-05-07T14:43:38;6.20;;;2.20;;
44440;SDS011;30146;52.268;20.944;2023-05-07T14:48:39;4.00;;;2.10;;
44440;SDS011;30146;52.268;20.944;2023-05-07T14:51:10;3.20;;;2.00;;
44440;SDS011;30146;52.268;20.944;2023-05-07T14:53:42;3.00;;;1.90;;
44440;SDS011;30146;52.268;20.944;2023-05-07T14:56:16;2.70;;;2.00;;
44440;SDS011;30146;52.268;20.944;2023-05-07T14:58:50;2.70;;;2.00;;
44440;SDS011;30146;52.268;20.944;2023-05-07T15:01:22;3.60;;;2.50;;
44440;SDS011;30146;52.268;20.944;2023-05-07T15:03:55;2.30;;;1.60;;
44440;SDS011;30146;52.268;20.944;2023-05-07T15:06:26;3.80;;;2.00;;
44440;SDS011;30146;52.268;20.944;2023-05-07T15:08:57;2.40;;;1.90;;
44440;SDS011;30146;52.268;20.944;2023-05-07T15:11:28;2.40;;;2.00;;
44440;SDS011;30146;52.268;20.944;2023-05-07T15:17:43;3.30;;;2.00;;
44440;SDS011;30146;52.268;20.944;2023-05-07T15:20:17;5.10;;;2.30;;
44440;SDS011;30146;52.268;20.944;2023-05-07T15:22:48;4.20;;;2.50;;
44440;SDS011;30146;52.268;20.944;2023-05-07T15:25:21;3.40;;;2.10;;
44440;SDS011;30146;52.268;20.944;2023-05-07T15:27:53;4.00;;;2.20;;
44440;SDS011;30146;52.268;20.944;2023-05-07T15:30:24;4.00;;;2.10;;
44440;SDS011;30146;52.268;20.944;2023-05-07T15:32:56;2.50;;;2.00;;
44440;SDS011;30146;52.268;20.944;2023-05-07T15:35:37;5.60;;;2.00;;
44440;SDS011;30146;52.268;20.944;2023-05-07T15:38:11;4.10;;;2.30;;
44440;SDS011;30146;52.268;20.944;2023-05-07T15:40:42;4.40;;;2.10;;
44440;SDS011;30146;52.268;20.944;2023-05-07T15:43:13;2.40;;;2.20;;
44440;SDS011;30146;52.268;20.944;2023-05-07T15:45:45;4.00;;;2.10;;
44440;SDS011;30146;52.268;20.944;2023-05-07T15:48:16;3.30;;;2.30;;
44440;SDS011;30146;52.268;20.944;2023-05-07T15:50:48;6.50;;;2.60;;
44440;SDS011;30146;52.268;20.944;2023-05-07T15:53:19;3.70;;;2.40;;
44440;SDS011;30146;52.268;20.944;2023-05-07T15:55:50;2.70;;;2.20;;
44440;SDS011;30146;52.268;20.944;2023-05-07T15:58:22;2.70;;;2.20;;
44440;SDS011;30146;52.268;20.944;2023-05-07T16:00:52;3.90;;;3.10;;
44440;SDS011;30146;52.268;20.944;2023-05-07T16:03:28;3.00;;;2.40;;
44440;SDS011;30146;52.268;20.944;2023-05-07T16:06:00;5.00;;;2.30;;
44440;SDS011;30146;52.268;20.944;2023-05-07T16:08:32;4.40;;;2.30;;
44440;SDS011;30146;52.268;20.944;2023-05-07T16:11:03;2.50;;;1.90;;
44440;SDS011;30146;52.268;20.944;2023-05-07T16:13:35;2.60;;;2.30;;
44440;SDS011;30146;52.268;20.944;2023-05-07T16:16:06;3.80;;;2.30;;
44440;SDS011;30146;52.268;20.944;2023-05-07T16:18:37;3.30;;;1.90;;
44440;SDS011;30146;52.268;20.944;2023-05-07T16:21:09;3.50;;;2.30;;
44440;SDS011;30146;52.268;20.944;2023-05-07T16:24:11;3.80;;;2.30;;
44440;SDS011;30146;52.268;20.944;2023-05-07T16:26:44;3.50;;;2.60;;
44440;SDS011;30146;52.268;20.944;2023-05-07T16:29:15;3.20;;;2.00;;
44440;SDS011;30146;52.268;20.944;2023-05-07T16:31:47;3.30;;;1.90;;
44440;SDS011;30146;52.268;20.944;2023-05-07T16:34:19;3.10;;;2.40;;
44440;SDS011;30146;52.268;20.944;2023-05-07T16:36:51;3.30;;;2.10;;